createdAt,value
2022-10-10T00:01:27.371Z,1.90
2022-10-10T00:03:54.605Z,2.17
2022-10-10T00:06:26.337Z,1.92
2022-10-10T00:08:54.883Z,1.50
2022-10-10T00:11:23.824Z,1.60
2022-10-10T00:13:51.355Z,1.98
2022-10-10T00:16:18.602Z,1.55
2022-10-10T00:18:45.280Z,1.98
2022-10-10T00:21:11.912Z,1.80
2022-10-10T00:23:38.715Z,1.60
2022-10-10T00:26:08.982Z,1.80
2022-10-10T00:28:38.931Z,1.80
2022-10-10T00:31:07.139Z,1.77
2022-10-10T00:33:33.689Z,1.95
2022-10-10T00:36:00.396Z,1.75
2022-10-10T00:38:27.016Z,1.80
2022-10-10T00:40:55.565Z,2.00
2022-10-10T00:43:23.811Z,1.77
2022-10-10T00:45:50.853Z,1.58
2022-10-10T00:48:33.159Z,2.60
2022-10-10T00:51:13.037Z,1.90
2022-10-10T00:53:45.311Z,1.83
2022-10-10T00:56:13.272Z,2.25
2022-10-10T00:58:41.939Z,1.73
2022-10-10T01:01:09.184Z,1.60
2022-10-10T01:03:35.920Z,1.63
2022-10-10T01:06:02.678Z,1.63
2022-10-10T01:08:29.514Z,1.98
2022-10-10T01:11:14.305Z,2.70
2022-10-10T01:14:07.222Z,1.75
2022-10-10T01:16:39.842Z,1.95
2022-10-10T01:19:06.378Z,1.90
2022-10-10T01:21:45.942Z,2.17
2022-10-10T01:24:38.495Z,2.45
2022-10-10T01:27:12.478Z,1.80
2022-10-10T01:29:49.493Z,2.10
2022-10-10T01:32:29.978Z,1.88
2022-10-10T01:35:19.109Z,2.30
2022-10-10T01:37:55.070Z,1.80
2022-10-10T01:40:27.679Z,2.28
2022-10-10T01:42:58.970Z,1.95
2022-10-10T01:45:26.890Z,1.98
2022-10-10T01:47:56.306Z,1.50
2022-10-10T01:50:24.837Z,2.22
2022-10-10T01:53:12.828Z,1.65
2022-10-10T01:55:43.415Z,1.83
2022-10-10T01:58:28.147Z,1.85
2022-10-10T02:01:00.997Z,2.08
2022-10-10T02:03:36.321Z,2.03
2022-10-10T02:06:10.531Z,1.85
2022-10-10T02:08:42.481Z,1.58
2022-10-10T02:11:10.515Z,2.83
2022-10-10T02:13:41.893Z,1.65
2022-10-10T02:16:14.534Z,1.80
2022-10-10T02:18:45.653Z,1.88
2022-10-10T02:21:13.243Z,1.80
2022-10-10T02:23:42.656Z,1.52
2022-10-10T02:26:10.888Z,2.22
2022-10-10T02:28:46.777Z,2.75
2022-10-10T02:31:17.513Z,1.63
2022-10-10T02:33:47.131Z,1.55
2022-10-10T02:36:14.777Z,1.80
2022-10-10T02:38:42.964Z,1.98
2022-10-10T02:41:11.807Z,1.95
2022-10-10T02:43:39.327Z,1.80
2022-10-10T02:46:09.623Z,2.33
2022-10-10T02:48:36.215Z,2.38
2022-10-10T02:51:02.779Z,2.42
2022-10-10T02:53:29.348Z,1.83
2022-10-10T02:55:55.935Z,2.13
2022-10-10T02:58:22.578Z,1.70
2022-10-10T03:00:49.337Z,1.88
2022-10-10T03:03:15.903Z,2.13
2022-10-10T03:05:42.512Z,1.90
2022-10-10T03:08:11.678Z,2.10
2022-10-10T03:10:38.584Z,2.45
2022-10-10T03:13:05.248Z,2.08
2022-10-10T03:15:34.566Z,1.90
2022-10-10T03:18:01.196Z,2.33
2022-10-10T03:20:27.781Z,2.28
2022-10-10T03:22:54.684Z,1.98
2022-10-10T03:25:21.309Z,1.83
2022-10-10T03:27:48.156Z,2.38
2022-10-10T03:30:14.734Z,1.90
2022-10-10T03:32:41.231Z,1.95
2022-10-10T03:35:08.250Z,1.63
2022-10-10T03:37:35.084Z,2.22
2022-10-10T03:40:01.971Z,2.28
2022-10-10T03:42:28.556Z,2.00
2022-10-10T03:44:55.242Z,2.10
2022-10-10T03:47:21.872Z,1.90
2022-10-10T03:49:48.449Z,2.20
2022-10-10T03:52:14.989Z,2.03
2022-10-10T03:54:44.240Z,1.90
2022-10-10T03:57:10.920Z,1.65
2022-10-10T03:59:37.652Z,1.90
2022-10-10T04:02:04.267Z,2.15
2022-10-10T04:04:31.822Z,1.80
2022-10-10T04:06:58.493Z,1.70
2022-10-10T04:09:25.149Z,1.98
2022-10-10T04:11:51.636Z,2.08
2022-10-10T04:14:18.212Z,2.50
2022-10-10T04:16:44.796Z,2.40
2022-10-10T04:19:11.401Z,1.70
2022-10-10T04:21:37.986Z,2.03
2022-10-10T04:24:04.883Z,2.47
2022-10-10T04:26:31.435Z,1.90
2022-10-10T04:28:58.393Z,1.88
2022-10-10T04:31:24.936Z,2.30
2022-10-10T04:33:51.469Z,2.78
2022-10-10T04:36:18.041Z,1.90
2022-10-10T04:38:44.643Z,2.70
2022-10-10T04:41:11.299Z,2.35
2022-10-10T04:43:38.026Z,1.75
2022-10-10T04:46:04.805Z,1.90
2022-10-10T04:48:31.696Z,2.25
2022-10-10T04:50:59.431Z,3.25
2022-10-10T04:53:27.183Z,2.50
2022-10-10T04:55:53.810Z,2.45
2022-10-10T04:58:20.629Z,2.03
2022-10-10T05:00:51.556Z,2.78
2022-10-10T05:03:18.101Z,2.00
2022-10-10T05:05:44.702Z,2.53
2022-10-10T05:08:11.234Z,2.22
2022-10-10T05:10:39.209Z,1.95
2022-10-10T05:13:07.049Z,2.17
2022-10-10T05:15:36.703Z,2.40
2022-10-10T05:18:03.793Z,2.00
2022-10-10T05:20:31.661Z,2.20
2022-10-10T05:22:58.284Z,2.08
2022-10-10T05:25:24.903Z,2.72
2022-10-10T05:27:51.431Z,1.90
2022-10-10T05:30:18.046Z,2.00
2022-10-10T05:32:44.688Z,2.20
2022-10-10T05:35:11.524Z,2.10
2022-10-10T05:37:38.120Z,2.60
2022-10-10T05:40:05.306Z,1.98
2022-10-10T05:42:31.933Z,2.45
2022-10-10T05:44:58.513Z,2.80
2022-10-10T05:47:28.079Z,2.33
2022-10-10T05:49:54.867Z,3.40
2022-10-10T05:52:21.466Z,2.40
2022-10-10T05:54:48.072Z,2.95
2022-10-10T05:57:16.476Z,2.50
2022-10-10T05:59:43.129Z,2.53
2022-10-10T06:02:09.662Z,2.30
2022-10-10T06:04:36.304Z,2.70
2022-10-10T06:07:02.772Z,2.92
2022-10-10T06:09:29.260Z,2.85
2022-10-10T06:11:55.857Z,2.80
2022-10-10T06:14:22.403Z,2.50
2022-10-10T06:16:48.984Z,2.55
2022-10-10T06:19:15.541Z,2.50
2022-10-10T06:21:42.039Z,3.38
2022-10-10T06:24:10.746Z,6.75
2022-10-10T06:26:37.361Z,2.67
2022-10-10T06:29:04.002Z,2.30
2022-10-10T06:31:30.597Z,2.75
2022-10-10T06:33:57.218Z,2.40
2022-10-10T06:36:23.712Z,2.25
2022-10-10T06:38:50.200Z,2.63
2022-10-10T06:41:17.084Z,3.00
2022-10-10T06:43:43.613Z,2.35
2022-10-10T06:46:10.862Z,2.42
2022-10-10T06:48:37.751Z,2.80
2022-10-10T06:51:07.335Z,3.08
2022-10-10T06:53:34.682Z,2.80
2022-10-10T06:56:01.480Z,2.60
2022-10-10T06:58:28.883Z,2.67
2022-10-10T07:01:07.853Z,2.50
2022-10-10T07:03:34.372Z,2.58
2022-10-10T07:06:01.967Z,2.53
2022-10-10T07:08:31.962Z,2.60
2022-10-10T07:10:58.511Z,2.33
2022-10-10T07:13:25.072Z,3.08
2022-10-10T07:15:51.758Z,2.67
2022-10-10T07:18:19.227Z,2.20
2022-10-10T07:20:46.327Z,2.30
2022-10-10T07:23:13.436Z,2.80
2022-10-10T07:25:40.831Z,2.17
2022-10-10T07:28:08.252Z,2.60
2022-10-10T07:30:40.290Z,2.47
2022-10-10T07:33:07.234Z,2.20
2022-10-10T07:35:33.688Z,3.05
2022-10-10T07:38:00.230Z,2.33
2022-10-10T07:40:26.774Z,2.67
2022-10-10T07:42:53.638Z,2.47
2022-10-10T07:45:20.663Z,2.08
2022-10-10T07:47:47.177Z,2.83
2022-10-10T07:50:14.182Z,2.65
2022-10-10T07:52:41.121Z,2.78
2022-10-10T07:55:08.219Z,2.83
2022-10-10T07:57:37.604Z,2.67
2022-10-10T08:00:06.278Z,2.75
2022-10-10T08:02:32.854Z,2.30
2022-10-10T08:04:59.388Z,2.78
2022-10-10T08:07:26.108Z,1.90
2022-10-10T08:09:52.713Z,2.35
2022-10-10T08:12:19.428Z,2.65
2022-10-10T08:14:45.958Z,2.33
2022-10-10T08:17:12.501Z,2.83
2022-10-10T08:19:38.991Z,2.67
2022-10-10T08:22:05.490Z,2.42
2022-10-10T08:24:32.053Z,2.60
2022-10-10T08:26:58.539Z,1.98
2022-10-10T08:29:25.151Z,1.80
2022-10-10T08:31:51.666Z,2.33
2022-10-10T08:34:18.200Z,1.90
2022-10-10T08:36:44.745Z,1.90
2022-10-10T08:39:11.392Z,1.90
2022-10-10T08:41:43.182Z,2.15
2022-10-10T08:44:14.536Z,2.20
2022-10-10T08:46:42.498Z,2.42
2022-10-10T08:49:23.572Z,2.30
2022-10-10T08:52:00.768Z,2.17
2022-10-10T08:54:31.758Z,1.73
2022-10-10T08:57:00.968Z,1.63
2022-10-10T08:59:32.750Z,2.00
2022-10-10T09:02:23.445Z,2.22
2022-10-10T09:04:52.703Z,2.08
2022-10-10T09:07:34.278Z,2.33
2022-10-10T09:10:13.223Z,2.30
2022-10-10T09:12:49.403Z,1.80
2022-10-10T09:15:26.728Z,1.75
2022-10-10T09:18:10.757Z,1.80
2022-10-10T09:20:48.598Z,2.17
2022-10-10T09:23:22.491Z,2.65
2022-10-10T09:25:55.722Z,2.10
2022-10-10T09:28:29.891Z,2.00
2022-10-10T09:31:00.416Z,1.80
2022-10-10T09:33:34.104Z,2.10
2022-10-10T09:36:07.285Z,2.17
2022-10-10T09:38:56.698Z,2.00
2022-10-10T09:41:27.188Z,1.77
2022-10-10T09:43:56.215Z,2.40
2022-10-10T09:46:22.890Z,2.10
2022-10-10T09:48:49.425Z,2.17
2022-10-10T09:51:17.627Z,2.42
2022-10-10T09:53:45.226Z,1.90
2022-10-10T09:56:32.106Z,2.20
2022-10-10T09:58:58.760Z,2.92
2022-10-10T10:01:26.458Z,1.95
2022-10-10T10:04:28.494Z,1.83
2022-10-10T10:07:16.096Z,1.90
2022-10-10T10:09:47.588Z,2.42
2022-10-10T10:12:14.395Z,2.20
2022-10-10T10:14:41.141Z,1.95
2022-10-10T10:17:13.749Z,2.40
2022-10-10T10:19:45.165Z,2.13
2022-10-10T10:22:33.417Z,2.17
2022-10-10T10:25:20.952Z,2.13
2022-10-10T10:27:47.502Z,1.88
2022-10-10T10:30:26.274Z,2.00
2022-10-10T10:33:02.118Z,2.20
2022-10-10T10:35:33.075Z,2.15
2022-10-10T10:38:24.397Z,1.70
2022-10-10T10:41:15.300Z,2.05
2022-10-10T10:44:16.903Z,1.73
2022-10-10T10:46:59.288Z,2.03
2022-10-10T10:49:49.561Z,1.92
2022-10-10T10:52:47.814Z,1.70
2022-10-10T10:55:40.001Z,1.98
2022-10-10T11:01:27.965Z,1.63
2022-10-10T11:05:21.051Z,2.38
2022-10-10T11:07:17.348Z,1.88
2022-10-10T11:09:50.184Z,2.22
2022-10-10T11:12:38.100Z,1.60
2022-10-10T11:15:19.729Z,1.38
2022-10-10T11:18:05.547Z,2.15
2022-10-10T11:20:37.042Z,1.80
2022-10-10T11:23:23.170Z,1.75
2022-10-10T11:25:54.437Z,1.70
2022-10-10T11:28:29.505Z,1.80
2022-10-10T11:31:19.460Z,1.98
2022-10-10T11:33:49.241Z,1.60
2022-10-10T11:36:18.792Z,2.00
2022-10-10T11:39:04.027Z,1.60
2022-10-10T11:41:44.384Z,2.08
2022-10-10T11:44:34.569Z,2.40
2022-10-10T11:47:13.474Z,2.13
2022-10-10T11:49:58.565Z,1.50
2022-10-10T11:52:34.657Z,1.70
2022-10-10T11:55:19.098Z,2.00
2022-10-10T11:57:49.936Z,1.92
2022-10-10T12:00:17.711Z,2.38
2022-10-10T12:02:46.225Z,1.80
2022-10-10T12:05:29.625Z,1.73
2022-10-10T12:08:00.128Z,2.03
2022-10-10T12:10:27.482Z,2.10
2022-10-10T12:12:56.021Z,1.75
2022-10-10T12:15:40.865Z,1.85
2022-10-10T12:18:23.687Z,2.03
2022-10-10T12:20:51.276Z,1.90
2022-10-10T12:23:38.057Z,2.25
2022-10-10T12:26:04.836Z,2.05
2022-10-10T12:29:00.061Z,1.73
2022-10-10T12:31:35.125Z,2.83
2022-10-10T12:34:17.207Z,2.30
2022-10-10T12:36:55.816Z,2.13
2022-10-10T12:39:31.767Z,2.00
2022-10-10T12:41:58.308Z,2.17
2022-10-10T12:44:44.713Z,1.83
2022-10-10T12:47:16.779Z,2.15
2022-10-10T12:49:49.201Z,2.05
2022-10-10T12:52:22.836Z,1.80
2022-10-10T12:54:50.569Z,2.20
2022-10-10T12:57:40.997Z,2.20
2022-10-10T13:00:13.375Z,1.85
2022-10-10T13:02:46.147Z,1.90
2022-10-10T13:05:16.071Z,2.47
2022-10-10T13:07:43.692Z,2.22
2022-10-10T13:10:24.538Z,2.13
2022-10-10T13:13:07.117Z,2.03
2022-10-10T13:15:35.044Z,1.95
2022-10-10T13:18:01.809Z,2.15
2022-10-10T13:20:37.983Z,1.83
2022-10-10T13:23:14.213Z,2.00
2022-10-10T13:25:41.218Z,1.95
2022-10-10T13:28:18.860Z,2.42
2022-10-10T13:30:45.729Z,2.33
2022-10-10T13:33:17.827Z,2.63
2022-10-10T13:35:45.761Z,2.50
2022-10-10T13:38:13.695Z,2.22
2022-10-10T13:40:41.923Z,2.55
2022-10-10T13:43:16.293Z,2.67
2022-10-10T13:45:56.790Z,2.15
2022-10-10T13:48:35.301Z,1.63
2022-10-10T13:51:03.372Z,2.70
2022-10-10T13:53:30.633Z,2.28
2022-10-10T13:56:07.728Z,2.97
2022-10-10T13:58:41.141Z,2.00
2022-10-10T14:01:19.807Z,1.92
2022-10-10T14:03:48.003Z,2.47
2022-10-10T14:06:19.474Z,2.30
2022-10-10T14:08:46.982Z,2.70
2022-10-10T14:11:19.113Z,2.55
2022-10-10T14:13:52.569Z,2.45
2022-10-10T14:16:19.013Z,2.13
2022-10-10T14:18:45.959Z,2.28
2022-10-10T14:21:13.246Z,2.10
2022-10-10T14:23:40.056Z,2.20
2022-10-10T14:26:10.137Z,3.10
2022-10-10T14:28:38.720Z,2.58
2022-10-10T14:31:06.010Z,2.95
2022-10-10T14:33:33.048Z,2.97
2022-10-10T14:36:00.608Z,4.25
2022-10-10T14:38:27.550Z,2.20
2022-10-10T14:40:54.925Z,3.10
2022-10-10T14:43:22.926Z,2.30
2022-10-10T14:45:51.357Z,2.72
2022-10-10T14:48:18.441Z,2.15
2022-10-10T14:50:47.397Z,2.45
2022-10-10T14:53:16.699Z,2.72
2022-10-10T14:55:43.770Z,2.92
2022-10-10T14:58:21.641Z,2.92
2022-10-10T15:00:48.855Z,2.80
2022-10-10T15:03:15.562Z,2.47
2022-10-10T15:05:42.506Z,1.98
2022-10-10T15:08:13.124Z,2.80
2022-10-10T15:10:40.187Z,2.45
2022-10-10T15:13:06.858Z,2.72
2022-10-10T15:15:33.669Z,2.85
2022-10-10T15:18:00.601Z,2.53
2022-10-10T15:20:33.891Z,2.47
2022-10-10T15:23:02.524Z,2.35
2022-10-10T15:25:33.777Z,2.85
2022-10-10T15:28:02.606Z,2.38
2022-10-10T15:30:29.212Z,2.28
2022-10-10T15:32:55.818Z,2.90
2022-10-10T15:35:24.202Z,2.83
2022-10-10T15:37:50.793Z,2.08
2022-10-10T15:40:20.831Z,2.08
2022-10-10T15:42:47.680Z,2.35
2022-10-10T15:45:19.373Z,2.20
2022-10-10T15:47:59.093Z,2.47
2022-10-10T15:50:27.084Z,2.90
2022-10-10T15:52:53.771Z,2.58
2022-10-10T15:55:20.336Z,2.55
2022-10-10T15:57:46.829Z,2.92
2022-10-10T16:00:14.184Z,2.72
2022-10-10T16:02:40.819Z,2.38
2022-10-10T16:05:08.632Z,2.55
2022-10-10T16:07:42.173Z,2.20
2022-10-10T16:10:13.578Z,2.63
2022-10-10T16:12:40.078Z,2.67
2022-10-10T16:15:07.529Z,3.03
2022-10-10T16:17:34.369Z,3.33
2022-10-10T16:20:00.842Z,2.60
2022-10-10T16:22:27.310Z,2.42
2022-10-10T16:25:17.437Z,2.50
2022-10-10T16:27:40.658Z,2.88
2022-10-10T16:30:08.157Z,2.45
2022-10-10T16:32:38.104Z,3.22
2022-10-10T16:35:08.689Z,2.67
2022-10-10T16:37:35.199Z,2.58
2022-10-10T16:40:05.347Z,2.65
2022-10-10T16:42:31.948Z,2.97
2022-10-10T16:44:58.424Z,2.92
2022-10-10T16:47:24.889Z,3.05
2022-10-10T16:49:51.425Z,3.03
2022-10-10T16:52:17.961Z,3.03
2022-10-10T16:54:46.855Z,2.88
2022-10-10T16:57:16.318Z,2.78
2022-10-10T16:59:42.826Z,3.28
2022-10-10T17:02:12.397Z,2.50
2022-10-10T17:04:38.906Z,3.20
2022-10-10T17:07:05.401Z,2.78
2022-10-10T17:09:31.969Z,3.40
2022-10-10T17:11:58.697Z,3.67
2022-10-10T17:14:25.200Z,2.92
2022-10-10T17:17:12.005Z,3.42
2022-10-10T17:19:38.272Z,3.20
2022-10-10T17:22:04.732Z,2.65
2022-10-10T17:24:31.267Z,3.75
2022-10-10T17:26:58.182Z,3.20
2022-10-10T17:29:24.926Z,3.10
2022-10-10T17:31:51.442Z,3.63
2022-10-10T17:34:19.069Z,3.38
2022-10-10T17:36:45.596Z,3.50
2022-10-10T17:39:12.171Z,3.78
2022-10-10T17:41:38.785Z,3.60
2022-10-10T17:44:05.950Z,3.03
2022-10-10T17:46:36.281Z,4.05
2022-10-10T17:49:07.663Z,3.55
2022-10-10T17:51:35.128Z,3.60
2022-10-10T17:54:02.952Z,3.55
2022-10-10T17:56:29.658Z,3.80
2022-10-10T17:58:56.266Z,4.68
2022-10-10T18:01:23.099Z,3.78
2022-10-10T18:03:49.880Z,3.85
2022-10-10T18:06:20.596Z,3.78
2022-10-10T18:08:50.662Z,4.20
2022-10-10T18:11:20.611Z,3.53
2022-10-10T18:13:47.528Z,3.85
2022-10-10T18:16:17.013Z,3.78
2022-10-10T18:18:50.434Z,6.40
2022-10-10T18:21:18.639Z,5.30
2022-10-10T18:23:45.188Z,4.78
2022-10-10T18:26:15.241Z,4.68
2022-10-10T18:28:45.251Z,4.97
2022-10-10T18:31:24.036Z,5.20
2022-10-10T18:33:50.725Z,5.80
2022-10-10T18:36:19.960Z,4.38
2022-10-10T18:38:46.971Z,4.55
2022-10-10T18:41:16.267Z,4.10
2022-10-10T18:43:43.557Z,4.20
2022-10-10T18:46:11.757Z,4.70
2022-10-10T18:48:38.801Z,4.15
2022-10-10T18:51:07.665Z,3.90
2022-10-10T18:53:41.853Z,4.15
2022-10-10T18:56:09.106Z,4.30
2022-10-10T18:58:36.506Z,3.92
2022-10-10T19:01:11.283Z,3.78
2022-10-10T19:03:38.680Z,3.83
2022-10-10T19:06:07.085Z,3.92
2022-10-10T19:08:34.099Z,3.83
2022-10-10T19:11:01.919Z,3.78
2022-10-10T19:13:29.422Z,3.45
2022-10-10T19:15:56.439Z,3.35
2022-10-10T19:18:23.587Z,4.07
2022-10-10T19:20:50.159Z,3.50
2022-10-10T19:23:16.801Z,3.70
2022-10-10T19:25:44.072Z,3.78
2022-10-10T19:28:10.979Z,4.03
2022-10-10T19:30:39.165Z,3.47
2022-10-10T19:33:06.004Z,4.47
2022-10-10T19:35:41.264Z,3.60
2022-10-10T19:38:10.335Z,4.07
2022-10-10T19:40:43.633Z,3.85
2022-10-10T19:43:10.145Z,3.65
2022-10-10T19:45:48.193Z,3.45
2022-10-10T19:48:15.858Z,3.55
2022-10-10T19:50:43.471Z,3.00
2022-10-10T19:53:11.082Z,2.83
2022-10-10T19:55:37.642Z,3.22
2022-10-10T19:58:04.278Z,3.28
2022-10-10T20:00:30.948Z,3.65
2022-10-10T20:02:57.410Z,3.40
2022-10-10T20:05:23.951Z,3.65
2022-10-10T20:07:51.206Z,3.92
2022-10-10T20:10:19.435Z,3.67
2022-10-10T20:12:46.766Z,4.15
2022-10-10T20:15:13.710Z,3.80
2022-10-10T20:17:40.521Z,3.83
2022-10-10T20:20:07.673Z,3.10
2022-10-10T20:22:34.811Z,4.03
2022-10-10T20:25:01.563Z,3.13
2022-10-10T20:27:31.152Z,3.08
2022-10-10T20:29:58.365Z,2.90
2022-10-10T20:32:24.945Z,2.90
2022-10-10T20:34:51.482Z,3.65
2022-10-10T20:37:18.174Z,3.00
2022-10-10T20:39:44.704Z,3.22
2022-10-10T20:42:11.329Z,2.70
2022-10-10T20:44:37.967Z,2.78
2022-10-10T20:47:04.614Z,3.13
2022-10-10T20:49:31.143Z,3.03
2022-10-10T20:52:00.354Z,2.83
2022-10-10T20:54:29.102Z,2.45
2022-10-10T20:56:55.663Z,2.83
2022-10-10T20:59:24.783Z,2.72
2022-10-10T21:01:51.469Z,2.90
2022-10-10T21:04:18.046Z,3.17
2022-10-10T21:06:44.952Z,2.47
2022-10-10T21:09:14.464Z,2.75
2022-10-10T21:11:41.520Z,2.30
2022-10-10T21:14:08.168Z,2.38
2022-10-10T21:16:37.862Z,2.30
2022-10-10T21:19:06.326Z,2.58
2022-10-10T21:21:35.029Z,2.30
2022-10-10T21:24:03.812Z,2.60
2022-10-10T21:26:31.119Z,2.55
2022-10-10T21:28:58.618Z,2.67
2022-10-10T21:31:27.203Z,3.35
2022-10-10T21:33:54.432Z,2.47
2022-10-10T21:36:22.380Z,2.88
2022-10-10T21:38:49.020Z,2.50
2022-10-10T21:41:20.553Z,2.53
2022-10-10T21:43:53.084Z,2.75
2022-10-10T21:46:23.520Z,2.97
2022-10-10T21:48:51.378Z,2.80
2022-10-10T21:51:18.457Z,3.25
2022-10-10T21:53:48.231Z,3.05
2022-10-10T21:56:15.101Z,2.67
2022-10-10T21:58:42.783Z,3.50
2022-10-10T22:01:20.491Z,3.33
2022-10-10T22:03:48.781Z,3.15
2022-10-10T22:06:19.274Z,3.92
2022-10-10T22:08:47.001Z,3.75
2022-10-10T22:11:19.786Z,3.40
2022-10-10T22:13:46.838Z,3.80
2022-10-10T22:16:13.687Z,4.10
2022-10-10T22:18:40.601Z,3.95
2022-10-10T22:21:12.590Z,3.53
2022-10-10T22:23:39.140Z,3.63
2022-10-10T22:26:10.167Z,4.22
2022-10-10T22:28:37.692Z,3.72
2022-10-10T22:31:08.269Z,3.30
2022-10-10T22:33:35.060Z,3.75
2022-10-10T22:36:01.884Z,4.18
2022-10-10T22:38:28.671Z,3.47
2022-10-10T22:40:55.308Z,3.17
2022-10-10T22:43:24.932Z,3.85
2022-10-10T22:45:53.421Z,3.38
2022-10-10T22:48:20.220Z,3.28
2022-10-10T22:50:46.779Z,2.53
2022-10-10T22:53:13.262Z,2.78
2022-10-10T22:55:39.800Z,2.55
2022-10-10T22:58:06.285Z,2.33
2022-10-10T23:00:32.874Z,2.80
2022-10-10T23:02:59.469Z,2.83
2022-10-10T23:05:26.757Z,2.28
2022-10-10T23:07:53.487Z,2.45
2022-10-10T23:10:20.087Z,2.40
2022-10-10T23:12:49.694Z,2.15
2022-10-10T23:15:16.251Z,2.25
2022-10-10T23:17:42.776Z,2.03
2022-10-10T23:20:12.487Z,2.25
2022-10-10T23:22:39.011Z,2.03
2022-10-10T23:25:06.070Z,1.98
2022-10-10T23:27:35.686Z,1.77
2022-10-10T23:30:02.197Z,1.63
2022-10-10T23:32:32.881Z,2.05
2022-10-10T23:34:59.339Z,1.50
2022-10-10T23:37:27.757Z,1.23
2022-10-10T23:39:54.317Z,1.42
2022-10-10T23:42:20.929Z,1.83
2022-10-10T23:44:47.463Z,1.30
2022-10-10T23:47:13.968Z,1.40
2022-10-10T23:49:40.487Z,1.50
2022-10-10T23:52:07.173Z,1.80
2022-10-10T23:54:35.963Z,1.88
2022-10-10T23:57:02.675Z,1.50
2022-10-10T23:59:29.348Z,1.70
